createdAt,value
2018-12-31T00:00:55.922Z,65.95
2018-12-31T00:01:56.154Z,66.33
2018-12-31T00:04:00.316Z,66.36
2018-12-31T00:05:00.603Z,66.23
2018-12-31T00:07:04.698Z,66.42
2018-12-31T00:08:04.935Z,66.42
2018-12-31T00:10:09.109Z,66.23
2018-12-31T00:11:09.339Z,66.33
2018-12-31T00:13:13.503Z,66.42
2018-12-31T00:14:13.737Z,66.52
2018-12-31T00:16:17.880Z,66.52
2018-12-31T00:17:18.113Z,66.23
2018-12-31T00:19:22.284Z,66.17
2018-12-31T00:20:22.519Z,66.14
2018-12-31T00:22:26.661Z,66.99
2018-12-31T00:23:26.894Z,66.89
2018-12-31T00:25:19.993Z,66.89
2018-12-31T00:26:20.225Z,66.61
2018-12-31T00:28:24.411Z,66.80
2018-12-31T00:29:24.638Z,66.71
2018-12-31T00:31:28.782Z,66.52
2018-12-31T00:32:29.018Z,66.89
2018-12-31T00:34:33.186Z,66.42
2018-12-31T00:35:33.420Z,66.52
2018-12-31T00:37:37.563Z,66.71
2018-12-31T00:38:37.796Z,66.74
2018-12-31T00:40:41.974Z,67.56
2018-12-31T00:41:42.205Z,67.56
2018-12-31T00:43:46.369Z,67.37
2018-12-31T00:44:46.599Z,67.65
2018-12-31T00:46:50.745Z,67.37
2018-12-31T00:47:50.971Z,67.56
2018-12-31T00:49:55.128Z,67.18
2018-12-31T00:50:55.361Z,66.93
2018-12-31T00:52:59.502Z,66.89
2018-12-31T00:53:59.736Z,66.89
2018-12-31T00:56:04.916Z,66.99
2018-12-31T00:57:05.150Z,66.99
2018-12-31T00:59:09.318Z,66.99
2018-12-31T01:00:09.556Z,67.18
2018-12-31T01:02:13.702Z,67.27
2018-12-31T01:03:14.019Z,67.37
2018-12-31T01:05:07.049Z,67.65
2018-12-31T01:06:07.262Z,67.59
2018-12-31T01:08:11.416Z,67.85
2018-12-31T01:09:11.645Z,67.40
2018-12-31T01:11:15.813Z,67.65
2018-12-31T01:12:16.051Z,68.04
2018-12-31T01:14:20.213Z,68.70
2018-12-31T01:15:20.448Z,68.92
2018-12-31T01:17:24.596Z,68.60
2018-12-31T01:18:24.839Z,69.17
2018-12-31T01:20:29.003Z,69.46
2018-12-31T01:21:29.237Z,69.78
2018-12-31T01:23:33.386Z,70.15
2018-12-31T01:24:33.622Z,70.25
2018-12-31T01:26:37.787Z,70.88
2018-12-31T01:27:38.021Z,71.77
2018-12-31T01:29:42.190Z,70.82
2018-12-31T01:30:42.426Z,70.78
2018-12-31T01:32:46.569Z,70.98
2018-12-31T01:33:46.802Z,71.17
2018-12-31T01:35:50.967Z,71.17
2018-12-31T01:36:51.201Z,71.67
2018-12-31T01:38:55.336Z,71.67
2018-12-31T01:39:55.584Z,71.86
2018-12-31T01:41:59.749Z,72.06
2018-12-31T01:42:59.987Z,72.81
2018-12-31T01:44:53.079Z,72.72
2018-12-31T01:45:53.314Z,72.91
2018-12-31T01:47:57.457Z,73.00
2018-12-31T01:48:57.692Z,73.38
2018-12-31T01:51:01.854Z,73.00
2018-12-31T01:52:02.086Z,73.19
2018-12-31T01:54:06.238Z,73.67
2018-12-31T01:55:06.467Z,73.38
2018-12-31T01:57:10.637Z,73.86
2018-12-31T01:58:10.873Z,75.00
2018-12-31T02:00:15.037Z,75.38
2018-12-31T02:01:15.273Z,75.19
2018-12-31T02:03:19.428Z,75.67
2018-12-31T02:04:19.655Z,75.38
2018-12-31T02:06:23.819Z,75.38
2018-12-31T02:07:24.104Z,75.57
2018-12-31T02:09:28.200Z,74.81
2018-12-31T02:10:28.436Z,74.33
2018-12-31T02:12:32.602Z,73.44
2018-12-31T02:13:32.853Z,73.16
2018-12-31T02:15:25.933Z,72.40
2018-12-31T02:16:26.171Z,72.30
2018-12-31T02:18:30.311Z,72.15
2018-12-31T02:19:30.552Z,72.06
2018-12-31T02:21:34.717Z,71.86
2018-12-31T02:22:34.952Z,72.63
2018-12-31T02:24:39.101Z,71.77
2018-12-31T02:25:39.340Z,71.30
2018-12-31T02:27:43.580Z,71.64
2018-12-31T02:28:43.737Z,71.67
2018-12-31T02:30:47.909Z,71.86
2018-12-31T02:31:48.139Z,71.39
2018-12-31T02:33:52.281Z,72.15
2018-12-31T02:34:52.517Z,72.63
2018-12-31T02:36:56.682Z,71.67
2018-12-31T02:37:56.914Z,71.86
2018-12-31T02:40:01.108Z,72.53
2018-12-31T02:41:01.326Z,73.19
2018-12-31T02:43:05.470Z,73.19
2018-12-31T02:44:05.707Z,73.67
2018-12-31T02:46:09.876Z,73.29
2018-12-31T02:47:10.117Z,73.38
2018-12-31T02:49:14.254Z,73.00
2018-12-31T02:50:14.486Z,72.81
2018-12-31T02:52:18.651Z,72.72
2018-12-31T02:53:18.890Z,72.44
2018-12-31T02:55:11.991Z,72.53
2018-12-31T02:56:12.225Z,72.15
2018-12-31T02:58:16.367Z,73.10
2018-12-31T02:59:16.605Z,72.63
2018-12-31T03:01:20.778Z,72.81
2018-12-31T03:02:21.011Z,72.53
2018-12-31T03:04:25.158Z,72.91
2018-12-31T03:05:25.391Z,72.44
2018-12-31T03:07:29.556Z,71.86
2018-12-31T03:08:29.802Z,72.44
2018-12-31T03:10:33.960Z,72.06
2018-12-31T03:11:34.193Z,72.06
2018-12-31T03:13:38.335Z,72.44
2018-12-31T03:14:38.570Z,72.25
2018-12-31T03:16:42.738Z,72.06
2018-12-31T03:17:42.976Z,71.77
2018-12-31T03:19:47.117Z,71.96
2018-12-31T03:20:47.351Z,71.67
2018-12-31T03:22:51.520Z,71.77
2018-12-31T03:23:51.747Z,71.58
2018-12-31T03:25:55.924Z,71.30
2018-12-31T03:26:56.159Z,71.30
2018-12-31T03:29:00.306Z,71.20
2018-12-31T03:30:00.542Z,71.36
2018-12-31T03:32:04.711Z,71.73
2018-12-31T03:33:04.952Z,71.11
2018-12-31T03:34:58.013Z,71.73
2018-12-31T03:35:58.248Z,71.64
2018-12-31T03:38:02.414Z,71.64
2018-12-31T03:39:02.658Z,71.96
2018-12-31T03:41:06.820Z,71.26
2018-12-31T03:42:07.053Z,71.45
2018-12-31T03:44:27.180Z,72.34
2018-12-31T03:45:11.503Z,72.68
2018-12-31T03:47:15.669Z,72.25
2018-12-31T03:48:15.904Z,72.02
2018-12-31T03:50:20.047Z,72.44
2018-12-31T03:51:20.281Z,72.59
2018-12-31T03:53:24.476Z,72.97
2018-12-31T03:54:24.710Z,72.78
2018-12-31T03:56:28.874Z,72.49
2018-12-31T03:57:29.123Z,72.63
2018-12-31T03:59:33.259Z,73.16
2018-12-31T04:00:33.491Z,73.29
2018-12-31T04:02:37.658Z,73.19
2018-12-31T04:03:37.893Z,73.38
2018-12-31T04:05:30.974Z,73.63
2018-12-31T04:06:31.264Z,73.72
2018-12-31T04:08:35.370Z,73.67
2018-12-31T04:09:35.610Z,73.57
2018-12-31T04:11:39.775Z,73.57
2018-12-31T04:12:40.014Z,73.54
2018-12-31T04:14:44.190Z,73.63
2018-12-31T04:15:44.402Z,73.72
2018-12-31T04:17:48.556Z,73.76
2018-12-31T04:18:48.791Z,74.58
2018-12-31T04:20:52.936Z,73.72
2018-12-31T04:21:53.174Z,73.86
2018-12-31T04:23:57.343Z,73.82
2018-12-31T04:24:57.579Z,74.58
2018-12-31T04:27:01.742Z,74.81
2018-12-31T04:28:01.977Z,74.71
2018-12-31T04:30:06.128Z,74.81
2018-12-31T04:31:06.361Z,75.15
2018-12-31T04:33:10.522Z,75.28
2018-12-31T04:34:10.758Z,74.77
2018-12-31T04:36:14.906Z,75.05
2018-12-31T04:37:15.141Z,75.15
2018-12-31T04:39:19.303Z,75.15
2018-12-31T04:40:19.540Z,75.34
2018-12-31T04:42:23.705Z,75.72
2018-12-31T04:43:23.941Z,76.04
2018-12-31T04:45:17.017Z,76.04
2018-12-31T04:46:17.338Z,75.62
2018-12-31T04:48:21.417Z,75.91
2018-12-31T04:49:21.660Z,75.81
2018-12-31T04:51:25.804Z,76.86
2018-12-31T04:52:26.047Z,76.57
2018-12-31T04:54:30.207Z,76.57
2018-12-31T04:55:30.441Z,76.52
2018-12-31T04:57:34.605Z,76.76
2018-12-31T04:58:34.844Z,77.05
2018-12-31T05:00:38.985Z,76.80
2018-12-31T05:01:39.221Z,77.09
2018-12-31T05:03:43.388Z,76.86
2018-12-31T05:04:43.619Z,77.14
2018-12-31T05:06:47.761Z,77.52
2018-12-31T05:07:47.996Z,76.95
2018-12-31T05:09:52.161Z,77.62
2018-12-31T05:10:52.396Z,78.19
2018-12-31T05:12:56.568Z,77.81
2018-12-31T05:13:56.800Z,78.38
2018-12-31T05:16:00.939Z,78.00
2018-12-31T05:17:01.176Z,78.09
2018-12-31T05:19:05.340Z,79.04
2018-12-31T05:20:05.578Z,78.85
2018-12-31T05:22:09.721Z,78.95
2018-12-31T05:23:09.967Z,78.95
2018-12-31T05:25:03.052Z,79.33
2018-12-31T05:26:03.288Z,79.14
2018-12-31T05:28:07.449Z,79.08
2018-12-31T05:29:07.684Z,79.61
2018-12-31T05:31:11.826Z,79.04
2018-12-31T05:32:12.061Z,79.52
2018-12-31T05:34:16.220Z,79.61
2018-12-31T05:35:16.454Z,79.74
2018-12-31T05:37:20.596Z,79.52
2018-12-31T05:38:20.832Z,79.90
2018-12-31T05:40:25.008Z,79.80
2018-12-31T05:41:25.246Z,80.22
2018-12-31T05:43:29.407Z,80.56
2018-12-31T05:44:29.646Z,80.18
2018-12-31T05:46:33.789Z,80.27
2018-12-31T05:47:34.029Z,80.56
2018-12-31T05:49:38.191Z,80.88
2018-12-31T05:50:38.425Z,80.98
2018-12-31T05:52:42.596Z,80.79
2018-12-31T05:53:42.833Z,81.26
2018-12-31T05:55:46.976Z,81.17
2018-12-31T05:56:47.211Z,81.36
2018-12-31T05:58:51.384Z,80.79
2018-12-31T05:59:51.617Z,81.07
2018-12-31T06:01:55.758Z,80.88
2018-12-31T06:02:55.997Z,81.45
2018-12-31T06:04:49.087Z,81.26
2018-12-31T06:05:49.321Z,81.17
2018-12-31T06:07:53.486Z,81.07
2018-12-31T06:08:53.722Z,81.36
2018-12-31T06:10:57.874Z,81.36
2018-12-31T06:11:58.111Z,80.98
2018-12-31T06:14:02.278Z,81.65
2018-12-31T06:15:02.516Z,82.03
2018-12-31T06:17:06.659Z,81.93
2018-12-31T06:18:06.894Z,81.84
2018-12-31T06:20:11.064Z,81.93
2018-12-31T06:21:11.306Z,82.31
2018-12-31T06:23:15.466Z,82.03
2018-12-31T06:24:15.702Z,82.50
2018-12-31T06:26:19.852Z,82.31
2018-12-31T06:27:20.085Z,82.21
2018-12-31T06:29:24.262Z,82.59
2018-12-31T06:30:24.496Z,82.88
2018-12-31T06:32:28.642Z,82.69
2018-12-31T06:33:28.878Z,82.69
2018-12-31T06:35:21.974Z,82.78
2018-12-31T06:36:22.211Z,82.88
2018-12-31T06:38:26.375Z,82.69
2018-12-31T06:39:26.610Z,82.88
2018-12-31T06:41:30.757Z,83.07
2018-12-31T06:42:30.993Z,83.45
2018-12-31T06:44:35.164Z,83.54
2018-12-31T06:45:35.398Z,83.83
2018-12-31T06:47:39.548Z,83.54
2018-12-31T06:48:39.783Z,83.83
2018-12-31T06:50:43.950Z,83.83
2018-12-31T06:51:44.189Z,83.83
2018-12-31T06:53:48.354Z,84.30
2018-12-31T06:54:48.592Z,84.01
2018-12-31T06:56:52.737Z,84.01
2018-12-31T06:57:52.975Z,84.78
2018-12-31T06:59:57.137Z,84.49
2018-12-31T07:00:57.378Z,84.68
2018-12-31T07:03:01.517Z,84.40
2018-12-31T07:04:01.754Z,84.68
2018-12-31T07:06:05.924Z,85.06
2018-12-31T07:07:06.160Z,85.06
2018-12-31T07:09:10.323Z,85.35
2018-12-31T07:10:10.559Z,85.16
2018-12-31T07:12:14.716Z,85.25
2018-12-31T07:13:14.952Z,85.35
2018-12-31T07:15:08.058Z,85.63
2018-12-31T07:16:08.294Z,86.01
2018-12-31T07:18:12.436Z,85.72
2018-12-31T07:19:12.677Z,85.63
2018-12-31T07:21:16.846Z,86.30
2018-12-31T07:22:17.083Z,86.30
2018-12-31T07:24:21.244Z,85.91
2018-12-31T07:25:21.478Z,86.11
2018-12-31T07:27:25.622Z,86.58
2018-12-31T07:28:25.860Z,86.49
2018-12-31T07:30:30.021Z,86.87
2018-12-31T07:31:30.260Z,86.87
2018-12-31T07:33:34.424Z,86.87
2018-12-31T07:34:34.660Z,86.58
2018-12-31T07:36:38.825Z,87.05
2018-12-31T07:37:39.059Z,86.77
2018-12-31T07:39:43.227Z,86.87
2018-12-31T07:40:43.465Z,87.91
2018-12-31T07:42:47.610Z,87.72
2018-12-31T07:43:47.841Z,87.24
2018-12-31T07:45:52.004Z,87.82
2018-12-31T07:46:52.241Z,87.62
2018-12-31T07:48:56.382Z,88.10
2018-12-31T07:49:56.617Z,88.01
2018-12-31T07:52:00.781Z,88.01
2018-12-31T07:53:01.017Z,88.76
2018-12-31T07:54:54.119Z,88.48
2018-12-31T07:55:54.352Z,88.29
2018-12-31T07:57:58.500Z,88.76
2018-12-31T07:58:58.740Z,88.76
2018-12-31T08:01:02.902Z,89.14
2018-12-31T08:02:03.136Z,89.24
2018-12-31T08:04:07.270Z,89.81
2018-12-31T08:05:07.516Z,89.81
2018-12-31T08:07:11.688Z,89.53
2018-12-31T08:08:11.924Z,90.00
2018-12-31T08:10:16.104Z,90.19
2018-12-31T08:11:16.339Z,90.19
2018-12-31T08:13:20.483Z,90.47
2018-12-31T08:14:20.718Z,90.38
2018-12-31T08:16:24.886Z,91.24
2018-12-31T08:17:25.117Z,91.24
2018-12-31T08:19:29.257Z,91.04
2018-12-31T08:20:29.495Z,91.61
2018-12-31T08:22:33.660Z,91.80
2018-12-31T08:23:33.898Z,91.80
2018-12-31T08:25:26.973Z,91.89
2018-12-31T08:26:27.209Z,91.80
2018-12-31T08:28:31.378Z,91.80
2018-12-31T08:29:31.613Z,91.94
2018-12-31T08:31:35.779Z,91.61
2018-12-31T08:32:36.014Z,92.23
2018-12-31T08:34:40.155Z,92.71
2018-12-31T08:35:40.396Z,92.80
2018-12-31T08:37:44.558Z,92.71
2018-12-31T08:38:44.795Z,93.08
2018-12-31T08:40:48.939Z,92.99
2018-12-31T08:41:49.177Z,92.80
2018-12-31T08:43:53.342Z,93.37
2018-12-31T08:44:53.579Z,93.27
2018-12-31T08:46:57.742Z,93.46
2018-12-31T08:47:57.978Z,93.37
2018-12-31T08:50:03.345Z,93.27
2018-12-31T08:51:02.358Z,93.56
2018-12-31T08:53:06.525Z,94.03
2018-12-31T08:54:06.760Z,94.13
2018-12-31T08:56:10.903Z,93.56
2018-12-31T08:57:11.140Z,93.46
2018-12-31T08:59:15.312Z,93.75
2018-12-31T09:00:15.548Z,93.94
2018-12-31T09:02:19.719Z,93.94
2018-12-31T09:03:19.958Z,94.03
2018-12-31T09:05:13.033Z,94.51
2018-12-31T09:06:13.269Z,94.98
2018-12-31T09:08:17.452Z,95.08
2018-12-31T09:09:17.686Z,94.98
2018-12-31T09:11:21.842Z,95.08
2018-12-31T09:12:22.078Z,94.98
2018-12-31T09:14:26.243Z,95.65
2018-12-31T09:15:26.480Z,96.12
2018-12-31T09:17:30.645Z,96.69
2018-12-31T09:18:30.884Z,96.69
2018-12-31T09:20:35.025Z,97.55
2018-12-31T09:21:35.263Z,98.12
2018-12-31T09:23:39.432Z,99.26
2018-12-31T09:24:44.632Z,99.99
2018-12-31T09:26:43.814Z,99.99
2018-12-31T09:27:44.052Z,99.99
2018-12-31T09:29:48.218Z,99.99
2018-12-31T09:30:48.453Z,99.99
2018-12-31T09:32:52.619Z,99.99
2018-12-31T09:33:52.856Z,99.99
2018-12-31T09:35:57.003Z,99.99
2018-12-31T09:36:57.241Z,99.99
2018-12-31T09:39:01.404Z,99.99
2018-12-31T09:40:01.645Z,99.99
2018-12-31T09:42:05.789Z,99.99
2018-12-31T09:43:06.028Z,99.99
2018-12-31T09:44:59.120Z,99.99
2018-12-31T09:45:59.357Z,99.99
2018-12-31T09:48:03.504Z,99.99
2018-12-31T09:49:03.737Z,99.99
2018-12-31T09:51:07.903Z,99.99
2018-12-31T09:52:08.140Z,99.99
2018-12-31T09:54:12.305Z,99.99
2018-12-31T09:55:12.540Z,99.99
2018-12-31T09:57:16.687Z,99.99
2018-12-31T09:58:16.926Z,99.99
2018-12-31T10:00:21.088Z,99.99
2018-12-31T10:01:21.327Z,99.99
2018-12-31T10:03:25.477Z,99.99
2018-12-31T10:04:25.713Z,99.99
2018-12-31T10:06:29.880Z,99.99
2018-12-31T10:07:30.127Z,99.99
2018-12-31T10:09:34.289Z,99.99
2018-12-31T10:10:34.526Z,99.99
2018-12-31T10:12:38.679Z,99.99
2018-12-31T10:13:38.915Z,99.99
2018-12-31T10:15:32.012Z,99.99
2018-12-31T10:16:32.250Z,99.99
2018-12-31T10:18:36.395Z,99.99
2018-12-31T10:19:36.634Z,99.99
2018-12-31T10:21:41.218Z,99.99
2018-12-31T10:22:41.043Z,99.99
2018-12-31T10:24:45.213Z,99.99
2018-12-31T10:25:45.452Z,99.99
2018-12-31T10:27:49.599Z,99.99
2018-12-31T10:28:49.835Z,99.99
2018-12-31T10:30:54.001Z,99.99
2018-12-31T10:31:54.239Z,99.99
2018-12-31T10:33:58.426Z,99.99
2018-12-31T10:34:58.664Z,99.99
2018-12-31T10:37:02.812Z,99.99
2018-12-31T10:38:03.050Z,99.99
2018-12-31T10:40:07.222Z,99.99
2018-12-31T10:41:07.458Z,99.99
2018-12-31T10:43:11.607Z,99.99
2018-12-31T10:44:11.864Z,99.99
2018-12-31T10:46:16.031Z,99.99
2018-12-31T10:47:16.262Z,99.99
2018-12-31T10:49:20.432Z,99.99
2018-12-31T10:50:20.671Z,99.99
2018-12-31T10:52:24.815Z,99.99
2018-12-31T10:53:25.052Z,99.99
2018-12-31T10:55:18.151Z,99.99
2018-12-31T10:56:18.389Z,99.99
2018-12-31T10:58:22.537Z,99.99
2018-12-31T10:59:22.774Z,99.99
2018-12-31T11:01:26.944Z,99.99
2018-12-31T11:02:27.180Z,99.99
2018-12-31T11:04:31.376Z,99.99
2018-12-31T11:05:31.613Z,99.99
2018-12-31T11:07:35.765Z,99.99
2018-12-31T11:08:36.003Z,99.99
2018-12-31T11:10:40.171Z,99.99
2018-12-31T11:11:40.409Z,99.99
2018-12-31T11:13:44.555Z,99.99
2018-12-31T11:14:44.796Z,99.99
2018-12-31T11:16:48.961Z,99.99
2018-12-31T11:17:49.198Z,99.99
2018-12-31T11:19:53.380Z,99.99
2018-12-31T11:20:53.618Z,99.99
2018-12-31T11:22:57.764Z,99.99
2018-12-31T11:23:58.004Z,99.99
2018-12-31T11:26:02.172Z,99.99
2018-12-31T11:27:02.406Z,99.99
2018-12-31T11:29:06.556Z,99.99
2018-12-31T11:30:06.794Z,99.99
2018-12-31T11:32:10.960Z,99.99
2018-12-31T11:33:11.202Z,99.99
2018-12-31T11:35:04.299Z,99.99
2018-12-31T11:36:04.538Z,99.99
2018-12-31T11:38:08.691Z,99.99
2018-12-31T11:39:08.932Z,99.99
2018-12-31T11:41:13.107Z,99.99
2018-12-31T11:42:13.351Z,99.99
2018-12-31T11:44:17.493Z,99.99
2018-12-31T11:45:17.731Z,99.99
2018-12-31T11:47:21.906Z,99.99
2018-12-31T11:48:22.143Z,99.99
2018-12-31T11:50:26.315Z,99.99
2018-12-31T11:51:26.553Z,99.99
2018-12-31T11:53:30.727Z,99.99
2018-12-31T11:54:30.967Z,99.99
2018-12-31T11:56:35.138Z,99.99
2018-12-31T11:57:35.379Z,99.99
2018-12-31T11:59:39.545Z,99.99
2018-12-31T12:00:39.787Z,99.99
2018-12-31T12:02:43.970Z,99.99
2018-12-31T12:03:44.207Z,99.99
2018-12-31T12:05:48.374Z,99.99
2018-12-31T12:06:48.613Z,99.99
2018-12-31T12:08:52.777Z,99.99
2018-12-31T12:09:53.007Z,99.99
2018-12-31T12:11:57.178Z,99.99
2018-12-31T12:12:57.416Z,99.99
2018-12-31T12:14:50.494Z,99.99
2018-12-31T12:15:50.733Z,99.99
2018-12-31T12:17:54.903Z,99.99
2018-12-31T12:18:55.139Z,99.99
2018-12-31T12:20:59.288Z,99.99
2018-12-31T12:21:59.526Z,99.99
2018-12-31T12:24:03.697Z,99.99
2018-12-31T12:25:03.937Z,99.99
2018-12-31T12:27:08.107Z,99.99
2018-12-31T12:28:08.343Z,99.99
2018-12-31T12:30:12.492Z,99.99
2018-12-31T12:31:12.727Z,99.99
2018-12-31T12:33:16.905Z,99.99
2018-12-31T12:34:17.148Z,99.99
2018-12-31T12:36:21.300Z,99.99
2018-12-31T12:37:21.538Z,99.99
2018-12-31T12:39:25.712Z,99.99
2018-12-31T12:40:25.949Z,99.99
2018-12-31T12:42:30.120Z,99.99
2018-12-31T12:43:30.358Z,99.99
2018-12-31T12:45:23.433Z,99.99
2018-12-31T12:46:23.673Z,99.99
2018-12-31T12:48:27.844Z,99.99
2018-12-31T12:49:28.081Z,99.99
2018-12-31T12:51:32.228Z,99.99
2018-12-31T12:52:32.470Z,99.99
2018-12-31T12:54:36.640Z,99.99
2018-12-31T12:55:36.875Z,99.99
2018-12-31T12:57:41.050Z,99.99
2018-12-31T12:58:41.290Z,99.99
2018-12-31T13:00:45.496Z,99.99
2018-12-31T13:01:45.735Z,99.99
2018-12-31T13:03:49.910Z,99.99
2018-12-31T13:04:50.158Z,99.99
2018-12-31T13:06:54.280Z,99.99
2018-12-31T13:07:54.518Z,99.99
2018-12-31T13:09:58.770Z,99.99
2018-12-31T13:10:58.931Z,99.99
2018-12-31T13:13:03.149Z,99.99
2018-12-31T13:14:03.389Z,99.99
2018-12-31T13:16:07.537Z,99.99
2018-12-31T13:17:07.779Z,99.99
2018-12-31T13:19:11.941Z,99.99
2018-12-31T13:20:12.178Z,99.99
2018-12-31T13:22:16.465Z,99.99
2018-12-31T13:23:16.920Z,99.99
2018-12-31T13:25:09.920Z,99.99
2018-12-31T13:26:10.162Z,99.99
2018-12-31T13:28:14.331Z,99.99
2018-12-31T13:29:15.049Z,99.99
2018-12-31T13:31:18.872Z,99.99
2018-12-31T13:32:19.185Z,99.99
2018-12-31T13:34:23.691Z,99.99
2018-12-31T13:35:23.726Z,99.99
2018-12-31T13:37:28.038Z,99.99
2018-12-31T13:38:28.257Z,99.99
2018-12-31T13:40:34.433Z,99.99
2018-12-31T13:41:33.875Z,99.99
2018-12-31T13:43:38.198Z,99.99
2018-12-31T13:44:38.445Z,99.99
2018-12-31T13:46:42.664Z,99.99
2018-12-31T13:47:43.022Z,99.99
2018-12-31T13:49:47.583Z,99.99
2018-12-31T13:50:47.595Z,99.99
2018-12-31T13:52:51.984Z,99.99
2018-12-31T13:53:52.327Z,99.99
2018-12-31T13:55:56.539Z,99.99
2018-12-31T13:56:56.575Z,99.99
2018-12-31T13:59:00.813Z,99.99
2018-12-31T14:00:01.077Z,99.99
2018-12-31T14:02:05.324Z,99.99
2018-12-31T14:03:05.635Z,99.99
2018-12-31T14:04:58.734Z,99.99
2018-12-31T14:06:00.859Z,99.99
2018-12-31T14:08:04.285Z,99.99
2018-12-31T14:09:04.580Z,99.99
2018-12-31T14:11:08.663Z,99.99
2018-12-31T14:12:08.902Z,99.99
2018-12-31T14:14:13.620Z,99.99
2018-12-31T14:15:13.434Z,99.99
2018-12-31T14:17:17.650Z,99.99
2018-12-31T14:18:17.884Z,99.99
2018-12-31T14:20:22.226Z,99.99
2018-12-31T14:21:22.400Z,99.99
2018-12-31T14:23:26.621Z,99.99
2018-12-31T14:24:27.033Z,99.99
2018-12-31T14:26:31.345Z,99.99
2018-12-31T14:27:31.583Z,99.99
2018-12-31T14:29:35.883Z,99.99
2018-12-31T14:30:36.120Z,99.99
2018-12-31T14:32:40.268Z,99.99
2018-12-31T14:33:40.507Z,99.99
2018-12-31T14:35:33.602Z,99.99
2018-12-31T14:36:33.841Z,99.99
2018-12-31T14:38:37.987Z,99.99
2018-12-31T14:39:38.226Z,99.99
2018-12-31T14:41:42.395Z,99.99
2018-12-31T14:42:42.630Z,99.99
2018-12-31T14:44:46.808Z,99.99
2018-12-31T14:45:47.050Z,99.99
2018-12-31T14:47:51.198Z,99.99
2018-12-31T14:48:51.432Z,99.99
2018-12-31T14:50:55.601Z,99.99
2018-12-31T14:51:55.842Z,99.99
2018-12-31T14:53:59.985Z,99.99
2018-12-31T14:55:00.279Z,99.99
2018-12-31T14:57:04.390Z,99.99
2018-12-31T14:58:04.627Z,99.99
2018-12-31T15:00:08.801Z,99.99
2018-12-31T15:01:09.038Z,99.99
2018-12-31T15:03:13.185Z,99.99
2018-12-31T15:04:13.424Z,99.99
2018-12-31T15:06:17.592Z,99.99
2018-12-31T15:07:17.829Z,99.99
2018-12-31T15:09:21.974Z,99.99
2018-12-31T15:10:22.209Z,99.99
2018-12-31T15:12:26.379Z,99.99
2018-12-31T15:13:26.615Z,99.99
2018-12-31T15:15:19.971Z,99.99
2018-12-31T15:16:19.981Z,99.99
2018-12-31T15:18:24.127Z,99.99
2018-12-31T15:19:24.363Z,99.99
2018-12-31T15:21:28.529Z,99.99
2018-12-31T15:22:29.259Z,99.99
2018-12-31T15:24:32.912Z,99.99
2018-12-31T15:25:33.149Z,99.99
2018-12-31T15:27:37.320Z,99.99
2018-12-31T15:28:37.558Z,99.99
2018-12-31T15:30:41.726Z,99.99
2018-12-31T15:31:41.963Z,99.99
2018-12-31T15:33:46.109Z,99.99
2018-12-31T15:34:46.343Z,99.99
2018-12-31T15:36:50.512Z,99.99
2018-12-31T15:37:50.747Z,99.99
2018-12-31T15:39:54.897Z,99.99
2018-12-31T15:40:55.136Z,99.99
2018-12-31T15:42:59.303Z,99.99
2018-12-31T15:43:59.541Z,99.99
2018-12-31T15:46:03.726Z,99.99
2018-12-31T15:47:03.962Z,99.99
2018-12-31T15:49:08.117Z,99.99
2018-12-31T15:50:08.356Z,99.99
2018-12-31T15:52:12.525Z,99.99
2018-12-31T15:53:12.762Z,99.99
2018-12-31T15:55:05.833Z,99.99
2018-12-31T15:56:06.072Z,99.99
2018-12-31T15:58:10.238Z,99.99
2018-12-31T15:59:10.477Z,99.99
2018-12-31T16:01:14.658Z,99.99
2018-12-31T16:02:14.897Z,99.99
2018-12-31T16:04:19.041Z,99.99
2018-12-31T16:05:19.280Z,99.99
2018-12-31T16:07:23.462Z,99.99
2018-12-31T16:08:23.700Z,99.99
2018-12-31T16:10:27.844Z,99.99
2018-12-31T16:11:28.082Z,99.99
2018-12-31T16:13:32.265Z,99.99
2018-12-31T16:14:32.499Z,99.99
2018-12-31T16:16:36.674Z,99.99
2018-12-31T16:17:36.912Z,99.99
2018-12-31T16:19:41.071Z,99.99
2018-12-31T16:20:41.306Z,99.99
2018-12-31T16:22:45.471Z,99.99
2018-12-31T16:23:45.710Z,99.99
2018-12-31T16:25:49.857Z,99.99
2018-12-31T16:26:50.099Z,99.99
2018-12-31T16:28:54.268Z,99.99
2018-12-31T16:29:54.505Z,99.99
2018-12-31T16:31:58.680Z,99.99
2018-12-31T16:32:58.918Z,99.99
2018-12-31T16:34:51.999Z,99.99
2018-12-31T16:35:52.231Z,99.99
2018-12-31T16:37:56.398Z,99.99
2018-12-31T16:38:56.638Z,99.99
2018-12-31T16:41:00.783Z,99.99
2018-12-31T16:42:01.022Z,99.99
2018-12-31T16:44:05.195Z,99.99
2018-12-31T16:45:05.430Z,99.99
2018-12-31T16:47:09.640Z,99.99
2018-12-31T16:48:09.876Z,99.99
2018-12-31T16:50:14.042Z,99.99
2018-12-31T16:51:14.281Z,99.99
2018-12-31T16:53:18.452Z,99.99
2018-12-31T16:54:18.691Z,99.99
2018-12-31T16:56:22.839Z,99.99
2018-12-31T16:57:23.080Z,99.99
2018-12-31T16:59:28.261Z,99.99
2018-12-31T17:00:28.518Z,99.99
2018-12-31T17:02:32.667Z,99.99
2018-12-31T17:03:32.904Z,99.99
2018-12-31T17:05:25.979Z,99.99
2018-12-31T17:06:26.225Z,99.99
2018-12-31T17:08:30.420Z,99.99
2018-12-31T17:09:30.660Z,99.99
2018-12-31T17:11:34.813Z,99.99
2018-12-31T17:12:35.049Z,99.99
2018-12-31T17:14:39.222Z,99.99
2018-12-31T17:15:39.461Z,99.99
2018-12-31T17:17:43.658Z,99.99
2018-12-31T17:18:43.891Z,99.99
2018-12-31T17:20:48.042Z,99.99
2018-12-31T17:21:48.279Z,99.99
2018-12-31T17:23:52.452Z,99.99
2018-12-31T17:24:52.760Z,99.99
2018-12-31T17:26:56.835Z,99.99
2018-12-31T17:27:57.073Z,99.99
2018-12-31T17:30:02.792Z,99.99
2018-12-31T17:31:03.014Z,99.99
2018-12-31T17:33:07.160Z,99.99
2018-12-31T17:34:07.396Z,99.99
2018-12-31T17:36:13.063Z,99.99
2018-12-31T17:37:13.300Z,99.99
2018-12-31T17:39:17.480Z,99.99
2018-12-31T17:40:17.719Z,99.99
2018-12-31T17:42:22.900Z,99.99
2018-12-31T17:43:23.137Z,99.99
2018-12-31T17:45:23.055Z,99.99
2018-12-31T17:46:17.969Z,99.99
2018-12-31T17:48:22.135Z,99.99
2018-12-31T17:49:22.373Z,99.99
2018-12-31T17:51:27.054Z,99.99
2018-12-31T17:52:27.292Z,99.99
2018-12-31T17:54:31.473Z,99.99
2018-12-31T17:55:31.710Z,99.99
2018-12-31T17:57:37.365Z,99.99
2018-12-31T17:58:37.605Z,99.99
2018-12-31T18:00:42.805Z,99.99
2018-12-31T18:01:42.588Z,99.99
2018-12-31T18:03:46.748Z,99.99
2018-12-31T18:04:46.985Z,99.99
2018-12-31T18:06:51.163Z,99.99
2018-12-31T18:07:51.403Z,99.99
2018-12-31T18:09:55.571Z,99.99
2018-12-31T18:10:55.807Z,99.99
2018-12-31T18:12:59.957Z,99.99
2018-12-31T18:14:00.194Z,99.99
2018-12-31T18:16:04.363Z,99.99
2018-12-31T18:17:04.603Z,99.99
2018-12-31T18:19:08.775Z,99.99
2018-12-31T18:20:09.013Z,99.99
2018-12-31T18:22:13.167Z,99.99
2018-12-31T18:23:13.399Z,99.99
2018-12-31T18:25:06.501Z,99.99
2018-12-31T18:26:06.736Z,99.99
2018-12-31T18:28:10.890Z,99.99
2018-12-31T18:29:11.127Z,99.99
2018-12-31T18:31:15.295Z,99.99
2018-12-31T18:32:15.540Z,99.99
2018-12-31T18:34:19.684Z,99.99
2018-12-31T18:35:19.928Z,99.99
2018-12-31T18:37:24.097Z,99.99
2018-12-31T18:38:24.335Z,99.99
2018-12-31T18:40:28.506Z,99.99
2018-12-31T18:41:28.745Z,99.99
2018-12-31T18:43:32.900Z,99.99
2018-12-31T18:44:33.133Z,99.99
2018-12-31T18:46:37.379Z,99.99
2018-12-31T18:47:37.542Z,99.99
2018-12-31T18:49:41.695Z,99.99
2018-12-31T18:50:41.934Z,99.99
2018-12-31T18:52:46.106Z,99.99
2018-12-31T18:53:46.342Z,99.99
2018-12-31T18:55:50.512Z,99.99
2018-12-31T18:56:50.755Z,99.99
2018-12-31T18:58:54.901Z,99.99
2018-12-31T18:59:55.142Z,99.99
2018-12-31T19:01:59.314Z,99.99
2018-12-31T19:02:59.551Z,99.99
2018-12-31T19:04:52.640Z,99.99
2018-12-31T19:05:52.875Z,99.99
2018-12-31T19:07:57.046Z,99.99
2018-12-31T19:08:57.281Z,99.99
2018-12-31T19:11:01.454Z,99.99
2018-12-31T19:12:01.692Z,99.99
2018-12-31T19:14:05.841Z,99.99
2018-12-31T19:15:06.077Z,99.99
2018-12-31T19:17:10.250Z,99.99
2018-12-31T19:18:10.489Z,99.99
2018-12-31T19:20:14.641Z,99.99
2018-12-31T19:21:14.876Z,99.99
2018-12-31T19:23:19.049Z,99.99
2018-12-31T19:24:19.284Z,99.99
2018-12-31T19:26:23.454Z,99.99
2018-12-31T19:27:23.687Z,99.99
2018-12-31T19:29:27.839Z,99.99
2018-12-31T19:30:28.075Z,99.99
2018-12-31T19:32:32.250Z,99.99
2018-12-31T19:33:32.487Z,99.99
2018-12-31T19:35:25.562Z,99.99
2018-12-31T19:36:25.801Z,99.99
2018-12-31T19:38:29.974Z,99.99
2018-12-31T19:39:30.211Z,99.99
2018-12-31T19:41:34.383Z,99.99